sensor_id;sensor_type;location;lat;lon;timestamp;pressure;altitude;pressure_sealevel;temperature;humidity
47815;BME280;33579;50.058;18.130;2023-05-18T00:00:42;99861.91;;;9.89;100.00
47815;BME280;33579;50.058;18.130;2023-05-18T00:01:44;99869.34;;;9.95;100.00
47815;BME280;33579;50.058;18.130;2023-05-18T00:02:46;99871.03;;;9.96;100.00
47815;BME280;33579;50.058;18.130;2023-05-18T00:03:47;99869.56;;;9.92;100.00
47815;BME280;33579;50.058;18.130;2023-05-18T00:04:49;99864.19;;;9.93;100.00
47815;BME280;33579;50.058;18.130;2023-05-18T00:05:51;99868.00;;;9.89;100.00
47815;BME280;33579;50.058;18.130;2023-05-18T00:06:53;99878.38;;;9.91;100.00
47815;BME280;33579;50.058;18.130;2023-05-18T00:07:54;99873.25;;;9.89;100.00
47815;BME280;33579;50.058;18.130;2023-05-18T00:08:56;99867.25;;;9.87;100.00
47815;BME280;33579;50.058;18.130;2023-05-18T00:09:59;99875.50;;;9.82;100.00
47815;BME280;33579;50.058;18.130;2023-05-18T00:11:02;99867.63;;;9.82;100.00
47815;BME280;33579;50.058;18.130;2023-05-18T00:12:04;99871.06;;;9.83;100.00
47815;BME280;33579;50.058;18.130;2023-05-18T00:13:06;99868.69;;;9.80;100.00
47815;BME280;33579;50.058;18.130;2023-05-18T00:14:07;99865.75;;;9.72;100.00
47815;BME280;33579;50.058;18.130;2023-05-18T00:15:09;99869.66;;;9.66;100.00
47815;BME280;33579;50.058;18.130;2023-05-18T00:16:11;99870.75;;;9.63;100.00
47815;BME280;33579;50.058;18.130;2023-05-18T00:17:12;99875.06;;;9.64;100.00
47815;BME280;33579;50.058;18.130;2023-05-18T00:18:14;99872.53;;;9.63;100.00
47815;BME280;33579;50.058;18.130;2023-05-18T00:19:15;99871.66;;;9.62;100.00
47815;BME280;33579;50.058;18.130;2023-05-18T00:20:17;99868.84;;;9.65;100.00
47815;BME280;33579;50.058;18.130;2023-05-18T00:21:19;99879.78;;;9.59;100.00
47815;BME280;33579;50.058;18.130;2023-05-18T00:22:21;99870.56;;;9.53;100.00
47815;BME280;33579;50.058;18.130;2023-05-18T00:23:22;99867.94;;;9.53;100.00
47815;BME280;33579;50.058;18.130;2023-05-18T00:24:24;99873.41;;;9.50;100.00
47815;BME280;33579;50.058;18.130;2023-05-18T00:25:25;99876.03;;;9.50;100.00
47815;BME280;33579;50.058;18.130;2023-05-18T00:26:27;99877.22;;;9.46;100.00
47815;BME280;33579;50.058;18.130;2023-05-18T00:27:29;99872.91;;;9.45;100.00
47815;BME280;33579;50.058;18.130;2023-05-18T00:28:31;99876.34;;;9.46;100.00
47815;BME280;33579;50.058;18.130;2023-05-18T00:29:32;99877.41;;;9.43;100.00
47815;BME280;33579;50.058;18.130;2023-05-18T00:30:34;99876.69;;;9.41;100.00
47815;BME280;33579;50.058;18.130;2023-05-18T00:31:37;99877.31;;;9.45;100.00
47815;BME280;33579;50.058;18.130;2023-05-18T00:32:40;99873.97;;;9.42;100.00
47815;BME280;33579;50.058;18.130;2023-05-18T00:33:42;99875.72;;;9.42;100.00
47815;BME280;33579;50.058;18.130;2023-05-18T00:34:44;99879.22;;;9.42;100.00
47815;BME280;33579;50.058;18.130;2023-05-18T00:35:46;99879.44;;;9.39;100.00
47815;BME280;33579;50.058;18.130;2023-05-18T00:36:47;99877.84;;;9.37;100.00
47815;BME280;33579;50.058;18.130;2023-05-18T00:37:49;99875.00;;;9.40;100.00
47815;BME280;33579;50.058;18.130;2023-05-18T00:38:50;99876.06;;;9.37;100.00
47815;BME280;33579;50.058;18.130;2023-05-18T00:39:52;99882.16;;;9.38;100.00
47815;BME280;33579;50.058;18.130;2023-05-18T00:40:54;99878.69;;;9.37;100.00
47815;BME280;33579;50.058;18.130;2023-05-18T00:41:55;99883.00;;;9.38;100.00
47815;BME280;33579;50.058;18.130;2023-05-18T00:42:58;99877.75;;;9.38;100.00
47815;BME280;33579;50.058;18.130;2023-05-18T00:44:00;99873.56;;;9.36;100.00
47815;BME280;33579;50.058;18.130;2023-05-18T00:45:02;99873.44;;;9.37;100.00
47815;BME280;33579;50.058;18.130;2023-05-18T00:46:03;99879.22;;;9.42;100.00
47815;BME280;33579;50.058;18.130;2023-05-18T00:47:05;99876.34;;;9.46;100.00
47815;BME280;33579;50.058;18.130;2023-05-18T00:48:07;99875.41;;;9.47;100.00
47815;BME280;33579;50.058;18.130;2023-05-18T00:49:09;99877.22;;;9.46;100.00
47815;BME280;33579;50.058;18.130;2023-05-18T00:50:11;99873.97;;;9.42;100.00
47815;BME280;33579;50.058;18.130;2023-05-18T00:51:13;99883.41;;;9.45;100.00
47815;BME280;33579;50.058;18.130;2023-05-18T00:52:15;99879.22;;;9.42;100.00
47815;BME280;33579;50.058;18.130;2023-05-18T00:53:16;99875.72;;;9.42;100.00
47815;BME280;33579;50.058;18.130;2023-05-18T00:54:18;99874.91;;;9.41;100.00
47815;BME280;33579;50.058;18.130;2023-05-18T00:55:20;99876.97;;;9.49;100.00
47815;BME280;33579;50.058;18.130;2023-05-18T00:56:22;99886.63;;;9.49;100.00
47815;BME280;33579;50.058;18.130;2023-05-18T00:57:23;99882.25;;;9.49;100.00
47815;BME280;33579;50.058;18.130;2023-05-18T00:58:25;99890.53;;;9.43;100.00
47815;BME280;33579;50.058;18.130;2023-05-18T00:59:27;99887.09;;;9.42;100.00
47815;BME280;33579;50.058;18.130;2023-05-18T01:00:30;99885.41;;;9.41;100.00
47815;BME280;33579;50.058;18.130;2023-05-18T01:01:32;99886.38;;;9.40;100.00
47815;BME280;33579;50.058;18.130;2023-05-18T01:02:34;99880.72;;;9.34;100.00
47815;BME280;33579;50.058;18.130;2023-05-18T01:03:36;99886.69;;;9.36;100.00
47815;BME280;33579;50.058;18.130;2023-05-18T01:04:38;99890.13;;;9.36;100.00
47815;BME280;33579;50.058;18.130;2023-05-18T01:05:40;99886.69;;;9.36;100.00
47815;BME280;33579;50.058;18.130;2023-05-18T01:06:42;99887.31;;;9.39;100.00
47815;BME280;33579;50.058;18.130;2023-05-18T01:07:43;99891.81;;;9.37;100.00
47815;BME280;33579;50.058;18.130;2023-05-18T01:08:46;99894.34;;;9.39;100.00
47815;BME280;33579;50.058;18.130;2023-05-18T01:09:47;99887.91;;;9.43;100.00
47815;BME280;33579;50.058;18.130;2023-05-18T01:10:53;99889.25;;;9.49;100.00
47815;BME280;33579;50.058;18.130;2023-05-18T01:12:05;99896.19;;;9.50;100.00
47815;BME280;33579;50.058;18.130;2023-05-18T01:13:23;99890.94;;;9.50;100.00
47815;BME280;33579;50.058;18.130;2023-05-18T01:14:40;99889.16;;;9.50;100.00
47815;BME280;33579;50.058;18.130;2023-05-18T01:15:47;99891.06;;;9.48;100.00
47815;BME280;33579;50.058;18.130;2023-05-18T01:17:22;99902.53;;;9.47;100.00
47815;BME280;33579;50.058;18.130;2023-05-18T01:18:41;99903.06;;;9.39;100.00
47815;BME280;33579;50.058;18.130;2023-05-18T01:21:12;99895.59;;;9.46;100.00
47815;BME280;33579;50.058;18.130;2023-05-18T01:24:02;99895.16;;;9.52;100.00
47815;BME280;33579;50.058;18.130;2023-05-18T01:25:33;99901.84;;;9.56;100.00
47815;BME280;33579;50.058;18.130;2023-05-18T01:26:40;99905.31;;;9.57;100.00
47815;BME280;33579;50.058;18.130;2023-05-18T01:27:45;99902.69;;;9.57;100.00
47815;BME280;33579;50.058;18.130;2023-05-18T01:28:50;99903.41;;;9.59;100.00
47815;BME280;33579;50.058;18.130;2023-05-18T01:29:54;99900.94;;;9.58;100.00
47815;BME280;33579;50.058;18.130;2023-05-18T01:30:56;99911.53;;;9.56;100.00
47815;BME280;33579;50.058;18.130;2023-05-18T01:31:58;99911.22;;;9.48;100.00
47815;BME280;33579;50.058;18.130;2023-05-18T01:33:12;99906.69;;;9.50;100.00
47815;BME280;33579;50.058;18.130;2023-05-18T01:34:14;99908.06;;;9.55;100.00
47815;BME280;33579;50.058;18.130;2023-05-18T01:35:15;99910.81;;;9.54;100.00
47815;BME280;33579;50.058;18.130;2023-05-18T01:36:17;99912.72;;;9.52;100.00
47815;BME280;33579;50.058;18.130;2023-05-18T01:37:18;99913.84;;;9.48;100.00
47815;BME280;33579;50.058;18.130;2023-05-18T01:38:22;99911.94;;;9.50;100.00
47815;BME280;33579;50.058;18.130;2023-05-18T01:39:24;99912.19;;;9.47;100.00
47815;BME280;33579;50.058;18.130;2023-05-18T01:40:32;99919.84;;;9.50;100.00
47815;BME280;33579;50.058;18.130;2023-05-18T01:41:39;99914.72;;;9.48;100.00
47815;BME280;33579;50.058;18.130;2023-05-18T01:42:46;99913.34;;;9.42;100.00
47815;BME280;33579;50.058;18.130;2023-05-18T01:43:58;99917.44;;;9.47;100.00
47815;BME280;33579;50.058;18.130;2023-05-18T01:45:06;99914.94;;;9.45;100.00
47815;BME280;33579;50.058;18.130;2023-05-18T01:46:19;99916.94;;;9.41;100.00
47815;BME280;33579;50.058;18.130;2023-05-18T01:47:23;99913.91;;;9.35;100.00
47815;BME280;33579;50.058;18.130;2023-05-18T01:48:26;99916.31;;;9.38;100.00
47815;BME280;33579;50.058;18.130;2023-05-18T01:50:12;99920.94;;;9.34;100.00
47815;BME280;33579;50.058;18.130;2023-05-18T01:51:17;99920.50;;;9.27;100.00
47815;BME280;33579;50.058;18.130;2023-05-18T01:52:38;99925.25;;;9.22;100.00
47815;BME280;33579;50.058;18.130;2023-05-18T01:53:50;99922.00;;;9.19;100.00
47815;BME280;33579;50.058;18.130;2023-05-18T01:54:55;99918.97;;;9.12;100.00
47815;BME280;33579;50.058;18.130;2023-05-18T01:55:58;99922.53;;;9.11;100.00
47815;BME280;33579;50.058;18.130;2023-05-18T01:57:02;99920.88;;;9.10;100.00
47815;BME280;33579;50.058;18.130;2023-05-18T01:58:07;99916.56;;;9.09;100.00
47815;BME280;33579;50.058;18.130;2023-05-18T01:59:10;99918.56;;;9.05;100.00
47815;BME280;33579;50.058;18.130;2023-05-18T02:00:14;99919.50;;;9.04;100.00
47815;BME280;33579;50.058;18.130;2023-05-18T02:01:17;99925.56;;;9.05;100.00
47815;BME280;33579;50.058;18.130;2023-05-18T02:02:20;99919.50;;;9.04;100.00
47815;BME280;33579;50.058;18.130;2023-05-18T02:03:22;99919.59;;;9.03;100.00
47815;BME280;33579;50.058;18.130;2023-05-18T02:04:23;99916.16;;;9.02;100.00
47815;BME280;33579;50.058;18.130;2023-05-18T02:05:25;99922.53;;;8.98;100.00
47815;BME280;33579;50.058;18.130;2023-05-18T02:06:26;99924.34;;;8.97;100.00
47815;BME280;33579;50.058;18.130;2023-05-18T02:07:28;99919.91;;;8.98;100.00
47815;BME280;33579;50.058;18.130;2023-05-18T02:08:30;99920.13;;;8.95;100.00
47815;BME280;33579;50.058;18.130;2023-05-18T02:09:31;99922.84;;;8.93;100.00
47815;BME280;33579;50.058;18.130;2023-05-18T02:10:34;99920.44;;;8.90;100.00
47815;BME280;33579;50.058;18.130;2023-05-18T02:11:35;99928.84;;;8.95;100.00
47815;BME280;33579;50.058;18.130;2023-05-18T02:12:37;99926.41;;;8.92;100.00
47815;BME280;33579;50.058;18.130;2023-05-18T02:13:38;99925.47;;;8.93;100.00
47815;BME280;33579;50.058;18.130;2023-05-18T02:14:40;99928.22;;;8.92;100.00
47815;BME280;33579;50.058;18.130;2023-05-18T02:15:41;99926.41;;;8.92;100.00
47815;BME280;33579;50.058;18.130;2023-05-18T02:16:43;99925.47;;;8.93;100.00
47815;BME280;33579;50.058;18.130;2023-05-18T02:17:45;99929.91;;;8.93;100.00
47815;BME280;33579;50.058;18.130;2023-05-18T02:18:47;99929.91;;;8.93;100.00
47815;BME280;33579;50.058;18.130;2023-05-18T02:19:49;99921.28;;;8.91;100.00
47815;BME280;33579;50.058;18.130;2023-05-18T02:20:59;99931.66;;;8.92;100.00
47815;BME280;33579;50.058;18.130;2023-05-18T02:22:01;99923.16;;;8.89;100.00
47815;BME280;33579;50.058;18.130;2023-05-18T02:23:03;99935.66;;;8.85;100.00
47815;BME280;33579;50.058;18.130;2023-05-18T02:24:04;99927.06;;;8.83;100.00
47815;BME280;33579;50.058;18.130;2023-05-18T02:25:07;99933.88;;;8.85;100.00
47815;BME280;33579;50.058;18.130;2023-05-18T02:26:10;99927.69;;;8.86;100.00
47815;BME280;33579;50.058;18.130;2023-05-18T02:27:11;99929.56;;;8.84;100.00
47815;BME280;33579;50.058;18.130;2023-05-18T02:28:13;99927.38;;;8.78;100.00
47815;BME280;33579;50.058;18.130;2023-05-18T02:29:14;99930.72;;;8.80;100.00
47815;BME280;33579;50.058;18.130;2023-05-18T02:30:16;99930.94;;;8.77;100.00
47815;BME280;33579;50.058;18.130;2023-05-18T02:31:18;99934.50;;;8.76;100.00
47815;BME280;33579;50.058;18.130;2023-05-18T02:32:19;99935.25;;;8.78;100.00
47815;BME280;33579;50.058;18.130;2023-05-18T02:33:21;99941.53;;;8.76;100.00
47815;BME280;33579;50.058;18.130;2023-05-18T02:34:24;99941.31;;;8.79;100.00
47815;BME280;33579;50.058;18.130;2023-05-18T02:35:26;99951.28;;;8.74;100.00
47815;BME280;33579;50.058;18.130;2023-05-18T02:36:27;99935.56;;;8.74;100.00
47815;BME280;33579;50.058;18.130;2023-05-18T02:37:29;99940.59;;;8.77;100.00
47815;BME280;33579;50.058;18.130;2023-05-18T02:38:31;99937.97;;;8.77;100.00
47815;BME280;33579;50.058;18.130;2023-05-18T02:39:33;99952.25;;;8.73;100.00
47815;BME280;33579;50.058;18.130;2023-05-18T02:40:34;99947.19;;;8.69;100.00
47815;BME280;33579;50.058;18.130;2023-05-18T02:41:36;99940.25;;;8.68;100.00
47815;BME280;33579;50.058;18.130;2023-05-18T02:42:37;99942.88;;;8.68;100.00
47815;BME280;33579;50.058;18.130;2023-05-18T02:43:39;99942.69;;;8.71;100.00
47815;BME280;33579;50.058;18.130;2023-05-18T02:44:41;99934.06;;;8.69;100.00
47815;BME280;33579;50.058;18.130;2023-05-18T02:45:46;99940.38;;;8.67;100.00
47815;BME280;33579;50.058;18.130;2023-05-18T02:46:48;99937.63;;;8.68;100.00
47815;BME280;33579;50.058;18.130;2023-05-18T02:47:49;99934.50;;;8.63;100.00
47815;BME280;33579;50.058;18.130;2023-05-18T02:48:51;99935.22;;;8.65;100.00
47815;BME280;33579;50.058;18.130;2023-05-18T02:49:53;99940.69;;;8.62;100.00
47815;BME280;33579;50.058;18.130;2023-05-18T02:50:54;99935.22;;;8.65;100.00
47815;BME280;33579;50.058;18.130;2023-05-18T02:51:56;99940.38;;;8.67;100.00
47815;BME280;33579;50.058;18.130;2023-05-18T02:52:58;99946.66;;;8.64;100.00
47815;BME280;33579;50.058;18.130;2023-05-18T02:53:59;99944.25;;;8.61;100.00
47815;BME280;33579;50.058;18.130;2023-05-18T02:55:07;99944.13;;;8.63;100.00
47815;BME280;33579;50.058;18.130;2023-05-18T02:56:22;99940.56;;;8.64;100.00
47815;BME280;33579;50.058;18.130;2023-05-18T02:57:38;99944.25;;;8.61;100.00
47815;BME280;33579;50.058;18.130;2023-05-18T02:58:41;99939.81;;;8.62;100.00
47815;BME280;33579;50.058;18.130;2023-05-18T02:59:49;99943.94;;;8.66;100.00
47815;BME280;33579;50.058;18.130;2023-05-18T03:00:52;99942.44;;;8.62;100.00
47815;BME280;33579;50.058;18.130;2023-05-18T03:01:53;99949.59;;;8.60;100.00
47815;BME280;33579;50.058;18.130;2023-05-18T03:02:55;99943.81;;;8.54;100.00
47815;BME280;33579;50.058;18.130;2023-05-18T03:03:57;99948.13;;;8.55;100.00
47815;BME280;33579;50.058;18.130;2023-05-18T03:04:59;99952.50;;;8.55;100.00
47815;BME280;33579;50.058;18.130;2023-05-18T03:06:01;99944.56;;;8.56;100.00
47815;BME280;33579;50.058;18.130;2023-05-18T03:07:03;99943.25;;;8.49;100.00
47815;BME280;33579;50.058;18.130;2023-05-18T03:08:05;99944.84;;;8.52;100.00
47815;BME280;33579;50.058;18.130;2023-05-18T03:09:06;99957.13;;;8.51;100.00
47815;BME280;33579;50.058;18.130;2023-05-18T03:10:13;99950.19;;;8.50;100.00
47815;BME280;33579;50.058;18.130;2023-05-18T03:11:15;99953.00;;;8.47;100.00
47815;BME280;33579;50.058;18.130;2023-05-18T03:12:17;99950.28;;;8.49;100.00
47815;BME280;33579;50.058;18.130;2023-05-18T03:13:19;99946.81;;;8.48;100.00
47815;BME280;33579;50.058;18.130;2023-05-18T03:14:21;99949.25;;;8.51;100.00
47815;BME280;33579;50.058;18.130;2023-05-18T03:15:22;99951.22;;;8.48;100.00
47815;BME280;33579;50.058;18.130;2023-05-18T03:16:24;99946.06;;;8.46;100.00
47815;BME280;33579;50.058;18.130;2023-05-18T03:17:26;99945.97;;;8.48;100.00
47815;BME280;33579;50.058;18.130;2023-05-18T03:18:27;99945.22;;;8.46;100.00
47815;BME280;33579;50.058;18.130;2023-05-18T03:19:29;99945.34;;;8.44;100.00
47815;BME280;33579;50.058;18.130;2023-05-18T03:20:31;99948.78;;;8.44;100.00
47815;BME280;33579;50.058;18.130;2023-05-18T03:21:32;99943.31;;;8.35;100.00
47815;BME280;33579;50.058;18.130;2023-05-18T03:22:35;99939.75;;;8.36;100.00
47815;BME280;33579;50.058;18.130;2023-05-18T03:23:37;99956.03;;;8.41;100.00
47815;BME280;33579;50.058;18.130;2023-05-18T03:24:40;99954.34;;;8.40;100.00
47815;BME280;33579;50.058;18.130;2023-05-18T03:25:46;99954.34;;;8.40;100.00
47815;BME280;33579;50.058;18.130;2023-05-18T03:26:47;99957.81;;;8.40;100.00
47815;BME280;33579;50.058;18.130;2023-05-18T03:27:49;99962.31;;;8.38;100.00
47815;BME280;33579;50.058;18.130;2023-05-18T03:28:51;99963.91;;;8.41;100.00
47815;BME280;33579;50.058;18.130;2023-05-18T03:29:52;99962.31;;;8.38;100.00
47815;BME280;33579;50.058;18.130;2023-05-18T03:30:54;99961.38;;;8.39;100.00
47815;BME280;33579;50.058;18.130;2023-05-18T03:31:57;99965.88;;;8.37;100.00
47815;BME280;33579;50.058;18.130;2023-05-18T03:32:59;99965.75;;;8.39;100.00
47815;BME280;33579;50.058;18.130;2023-05-18T03:34:04;99960.50;;;8.39;100.00
47815;BME280;33579;50.058;18.130;2023-05-18T03:35:06;99957.28;;;8.35;100.00
47815;BME280;33579;50.058;18.130;2023-05-18T03:36:07;99966.81;;;8.36;100.00
47815;BME280;33579;50.058;18.130;2023-05-18T03:37:09;99954.53;;;8.37;100.00
47815;BME280;33579;50.058;18.130;2023-05-18T03:38:11;99963.13;;;8.39;100.00
47815;BME280;33579;50.058;18.130;2023-05-18T03:39:16;99964.84;;;8.40;100.00
47815;BME280;33579;50.058;18.130;2023-05-18T03:40:19;99967.34;;;8.41;100.00
47815;BME280;33579;50.058;18.130;2023-05-18T03:41:22;99966.91;;;8.35;100.00
47815;BME280;33579;50.058;18.130;2023-05-18T03:42:25;99964.28;;;8.35;100.00
47815;BME280;33579;50.058;18.130;2023-05-18T03:43:27;99965.03;;;8.37;100.00
47815;BME280;33579;50.058;18.130;2023-05-18T03:44:29;99962.31;;;8.38;100.00
47815;BME280;33579;50.058;18.130;2023-05-18T03:45:31;99973.53;;;8.40;100.00
47815;BME280;33579;50.058;18.130;2023-05-18T03:46:33;99966.69;;;8.38;100.00
47815;BME280;33579;50.058;18.130;2023-05-18T03:47:35;99976.16;;;8.40;100.00
47815;BME280;33579;50.058;18.130;2023-05-18T03:48:37;99970.28;;;8.37;100.00
47815;BME280;33579;50.058;18.130;2023-05-18T03:49:38;99972.88;;;8.37;100.00
47815;BME280;33579;50.058;18.130;2023-05-18T03:50:40;99973.00;;;8.35;100.00
47815;BME280;33579;50.058;18.130;2023-05-18T03:51:42;99979.81;;;8.38;100.00
47815;BME280;33579;50.058;18.130;2023-05-18T03:52:43;99979.81;;;8.38;100.00
47815;BME280;33579;50.058;18.130;2023-05-18T03:53:45;99979.50;;;8.42;100.00
47815;BME280;33579;50.058;18.130;2023-05-18T03:54:47;99984.97;;;8.39;100.00
47815;BME280;33579;50.058;18.130;2023-05-18T03:55:49;99978.88;;;8.39;100.00
47815;BME280;33579;50.058;18.130;2023-05-18T03:56:52;99986.13;;;8.35;100.00
47815;BME280;33579;50.058;18.130;2023-05-18T03:57:53;99982.56;;;8.36;100.00
47815;BME280;33579;50.058;18.130;2023-05-18T03:58:56;99989.34;;;8.39;100.00
47815;BME280;33579;50.058;18.130;2023-05-18T03:59:57;99996.31;;;8.40;100.00
47815;BME280;33579;50.058;18.130;2023-05-18T04:01:00;99992.63;;;8.42;100.00
47815;BME280;33579;50.058;18.130;2023-05-18T04:02:02;99988.31;;;8.41;100.00
47815;BME280;33579;50.058;18.130;2023-05-18T04:03:03;99983.00;;;8.43;100.00
47815;BME280;33579;50.058;18.130;2023-05-18T04:04:05;99992.63;;;8.42;100.00
47815;BME280;33579;50.058;18.130;2023-05-18T04:05:07;99990.75;;;8.44;100.00
47815;BME280;33579;50.058;18.130;2023-05-18T04:06:09;99995.69;;;8.49;100.00
47815;BME280;33579;50.058;18.130;2023-05-18T04:07:13;99997.31;;;8.52;100.00
47815;BME280;33579;50.058;18.130;2023-05-18T04:08:16;99995.91;;;8.46;100.00
47815;BME280;33579;50.058;18.130;2023-05-18T04:09:18;99991.59;;;8.45;100.00
47815;BME280;33579;50.058;18.130;2023-05-18T04:10:19;99998.53;;;8.46;100.00
47815;BME280;33579;50.058;18.130;2023-05-18T04:11:21;99999.47;;;8.45;100.00
47815;BME280;33579;50.058;18.130;2023-05-18T04:12:22;99997.56;;;8.47;100.00
47815;BME280;33579;50.058;18.130;2023-05-18T04:13:24;100003.25;;;8.41;100.00
47815;BME280;33579;50.058;18.130;2023-05-18T04:14:26;100005.53;;;8.46;100.00
47815;BME280;33579;50.058;18.130;2023-05-18T04:15:27;100006.19;;;8.49;100.00
47815;BME280;33579;50.058;18.130;2023-05-18T04:16:29;100002.81;;;8.47;100.00
47815;BME280;33579;50.058;18.130;2023-05-18T04:17:31;100007.88;;;8.50;100.00
47815;BME280;33579;50.058;18.130;2023-05-18T04:18:33;100009.66;;;8.50;100.00
47815;BME280;33579;50.058;18.130;2023-05-18T04:19:36;100008.81;;;8.49;100.00
47815;BME280;33579;50.058;18.130;2023-05-18T04:20:39;99996.53;;;8.50;100.00
47815;BME280;33579;50.058;18.130;2023-05-18T04:21:41;99998.44;;;8.48;100.00
47815;BME280;33579;50.058;18.130;2023-05-18T04:22:45;100004.31;;;8.51;100.00
47815;BME280;33579;50.058;18.130;2023-05-18T04:23:47;100005.44;;;8.47;100.00
47815;BME280;33579;50.058;18.130;2023-05-18T04:24:48;99996.53;;;8.50;100.00
47815;BME280;33579;50.058;18.130;2023-05-18T04:25:50;100005.44;;;8.47;100.00
47815;BME280;33579;50.058;18.130;2023-05-18T04:26:52;100006.28;;;8.48;100.00
47815;BME280;33579;50.058;18.130;2023-05-18T04:27:54;100005.44;;;8.47;100.00
47815;BME280;33579;50.058;18.130;2023-05-18T04:28:57;100004.50;;;8.48;100.00
47815;BME280;33579;50.058;18.130;2023-05-18T04:29:59;100008.75;;;8.51;100.00
47815;BME280;33579;50.058;18.130;2023-05-18T04:31:01;100005.53;;;8.46;100.00
47815;BME280;33579;50.058;18.130;2023-05-18T04:32:04;100004.31;;;8.51;100.00
47815;BME280;33579;50.058;18.130;2023-05-18T04:33:06;100015.66;;;8.52;100.00
47815;BME280;33579;50.058;18.130;2023-05-18T04:34:08;100011.28;;;8.52;100.00
47815;BME280;33579;50.058;18.130;2023-05-18T04:35:10;100013.03;;;8.52;100.00
47815;BME280;33579;50.058;18.130;2023-05-18T04:36:13;100009.75;;;8.48;100.00
47815;BME280;33579;50.058;18.130;2023-05-18T04:37:14;100018.38;;;8.50;100.00
47815;BME280;33579;50.058;18.130;2023-05-18T04:38:16;100013.31;;;8.47;100.00
47815;BME280;33579;50.058;18.130;2023-05-18T04:39:18;100008.06;;;8.47;100.00
47815;BME280;33579;50.058;18.130;2023-05-18T04:40:19;100017.53;;;8.50;100.00
47815;BME280;33579;50.058;18.130;2023-05-18T04:41:22;100014.81;;;8.51;100.00
47815;BME280;33579;50.058;18.130;2023-05-18T04:42:23;100022.69;;;8.51;100.00
47815;BME280;33579;50.058;18.130;2023-05-18T04:43:25;100016.53;;;8.52;100.00
47815;BME280;33579;50.058;18.130;2023-05-18T04:44:28;100019.88;;;8.54;100.00
47815;BME280;33579;50.058;18.130;2023-05-18T04:45:32;100021.44;;;8.57;100.00
47815;BME280;33579;50.058;18.130;2023-05-18T04:46:34;100017.13;;;8.56;100.00
47815;BME280;33579;50.058;18.130;2023-05-18T04:47:36;100021.34;;;8.58;100.00
47815;BME280;33579;50.058;18.130;2023-05-18T04:48:38;100024.91;;;8.57;100.00
47815;BME280;33579;50.058;18.130;2023-05-18T04:49:40;100028.47;;;8.56;100.00
47815;BME280;33579;50.058;18.130;2023-05-18T04:50:41;100031.31;;;8.53;100.00
47815;BME280;33579;50.058;18.130;2023-05-18T04:51:43;100025.94;;;8.55;100.00
47815;BME280;33579;50.058;18.130;2023-05-18T04:52:47;100026.06;;;8.53;100.00
47815;BME280;33579;50.058;18.130;2023-05-18T04:53:50;100030.47;;;8.53;100.00
47815;BME280;33579;50.058;18.130;2023-05-18T04:54:52;100028.56;;;8.55;100.00
47815;BME280;33579;50.058;18.130;2023-05-18T04:55:53;100021.34;;;8.58;100.00
47815;BME280;33579;50.058;18.130;2023-05-18T04:56:55;100023.97;;;8.58;100.00
47815;BME280;33579;50.058;18.130;2023-05-18T04:57:57;100025.56;;;8.61;100.00
47815;BME280;33579;50.058;18.130;2023-05-18T04:58:59;100025.56;;;8.61;100.00
47815;BME280;33579;50.058;18.130;2023-05-18T05:00:03;100029.75;;;8.64;100.00
47815;BME280;33579;50.058;18.130;2023-05-18T05:01:06;100020.84;;;8.66;100.00
47815;BME280;33579;50.058;18.130;2023-05-18T05:02:07;100024.97;;;8.70;100.00
47815;BME280;33579;50.058;18.130;2023-05-18T05:03:09;100022.34;;;8.70;100.00
47815;BME280;33579;50.058;18.130;2023-05-18T05:04:11;100020.53;;;8.71;100.00
47815;BME280;33579;50.058;18.130;2023-05-18T05:05:13;100020.63;;;8.69;100.00
47815;BME280;33579;50.058;18.130;2023-05-18T05:06:15;100023.91;;;8.73;100.00
47815;BME280;33579;50.058;18.130;2023-05-18T05:07:16;100020.47;;;8.73;100.00
47815;BME280;33579;50.058;18.130;2023-05-18T05:08:19;100030.31;;;8.69;100.00
47815;BME280;33579;50.058;18.130;2023-05-18T05:09:21;100021.69;;;8.67;100.00
47815;BME280;33579;50.058;18.130;2023-05-18T05:10:23;100021.28;;;8.73;100.00
47815;BME280;33579;50.058;18.130;2023-05-18T05:11:24;100022.97;;;8.74;100.00
47815;BME280;33579;50.058;18.130;2023-05-18T05:12:26;100020.47;;;8.73;100.00
47815;BME280;33579;50.058;18.130;2023-05-18T05:13:28;100030.53;;;8.79;100.00
47815;BME280;33579;50.058;18.130;2023-05-18T05:14:29;100029.41;;;8.83;100.00
47815;BME280;33579;50.058;18.130;2023-05-18T05:15:31;100024.75;;;8.86;100.00
47815;BME280;33579;50.058;18.130;2023-05-18T05:16:34;100033.50;;;8.87;100.00
47815;BME280;33579;50.058;18.130;2023-05-18T05:17:35;100026.56;;;8.86;100.00
47815;BME280;33579;50.058;18.130;2023-05-18T05:18:41;100033.59;;;8.85;100.00
47815;BME280;33579;50.058;18.130;2023-05-18T05:19:43;100022.25;;;8.85;100.00
47815;BME280;33579;50.058;18.130;2023-05-18T05:20:45;100027.50;;;8.85;100.00
47815;BME280;33579;50.058;18.130;2023-05-18T05:21:47;100024.69;;;8.88;100.00
47815;BME280;33579;50.058;18.130;2023-05-18T05:22:48;100034.75;;;8.94;100.00
47815;BME280;33579;50.058;18.130;2023-05-18T05:23:56;100022.47;;;8.95;100.00
47815;BME280;33579;50.058;18.130;2023-05-18T05:24:59;100033.63;;;8.98;100.00
47815;BME280;33579;50.058;18.130;2023-05-18T05:26:00;100039.59;;;9.00;100.00
47815;BME280;33579;50.058;18.130;2023-05-18T05:27:03;100030.78;;;9.02;100.00
47815;BME280;33579;50.058;18.130;2023-05-18T05:28:04;100031.63;;;9.02;100.00
47815;BME280;33579;50.058;18.130;2023-05-18T05:29:07;100033.63;;;8.98;100.00
47815;BME280;33579;50.058;18.130;2023-05-18T05:30:08;100036.97;;;9.00;100.00
47815;BME280;33579;50.058;18.130;2023-05-18T05:31:11;100035.00;;;9.04;100.00
47815;BME280;33579;50.058;18.130;2023-05-18T05:32:13;100038.66;;;9.02;100.00